Time;durP1;ratioP1;P1;durP2;ratioP2;P2;SDS_P1;SDS_P2;PMS_P1;PMS_P2;Temp;Humidity;BMP_temperature;BMP_pressure;BME280_temperature;BME280_humidity;BME280_pressure;Samples;Min_cycle;Max_cycle;Signal;HPM_P1;HPM_P2
2021/05/07 00:02:00;;;;;;;6.50;4.83;;;7.40;97.30;;;;;;4939659;29;20175;-87
2021/05/07 00:04:26;;;;;;;6.10;4.40;;;7.30;97.30;;;;;;4939668;29;20574;-87
2021/05/07 00:06:52;;;;;;;8.33;4.30;;;7.30;97.30;;;;;;4938397;29;20423;-87
2021/05/07 00:09:18;;;;;;;10.27;4.80;;;7.30;97.30;;;;;;4939326;29;20187;-87
2021/05/07 00:11:43;;;;;;;6.33;4.10;;;7.40;97.30;;;;;;4939588;29;20558;-86
2021/05/07 00:14:09;;;;;;;8.37;4.47;;;7.40;97.30;;;;;;4939321;29;20446;-86
2021/05/07 00:16:35;;;;;;;6.00;4.47;;;7.40;97.30;;;;;;4956845;29;20219;-86
2021/05/07 00:19:00;;;;;;;11.33;5.03;;;7.40;97.30;;;;;;4957833;29;20214;-87
2021/05/07 00:21:26;;;;;;;8.60;4.50;;;7.40;97.30;;;;;;4940685;29;20175;-87
2021/05/07 00:23:52;;;;;;;7.20;4.37;;;7.30;97.30;;;;;;4941208;29;20538;-86
2021/05/07 00:26:18;;;;;;;7.90;4.47;;;7.30;97.30;;;;;;4941005;29;20179;-87
2021/05/07 00:28:44;;;;;;;8.70;4.20;;;7.30;97.30;;;;;;4940569;29;20418;-86
2021/05/07 00:31:12;;;;;;;6.83;4.40;;;7.30;97.30;;;;;;4941058;29;20441;-87
2021/05/07 00:33:37;;;;;;;6.87;4.40;;;7.30;97.30;;;;;;4957688;29;20187;-86
2021/05/07 00:36:04;;;;;;;8.30;4.47;;;7.30;97.30;;;;;;4940600;29;20451;-88
2021/05/07 00:38:29;;;;;;;5.93;4.50;;;7.30;97.30;;;;;;4940492;29;20200;-87
2021/05/07 00:40:54;;;;;;;7.77;4.77;;;7.20;97.30;;;;;;4940650;29;20985;-85
2021/05/07 00:43:20;;;;;;;8.40;5.20;;;7.30;97.30;;;;;;4940453;29;20183;-87
2021/05/07 00:45:46;;;;;;;7.70;5.03;;;7.20;97.30;;;;;;4956715;29;20189;-86
2021/05/07 00:48:16;;;;;;;8.60;5.40;;;7.20;97.30;;;;;;4956585;29;20195;-87
2021/05/07 00:50:43;;;;;;;6.63;4.43;;;7.20;97.30;;;;;;4956639;29;20164;-87
2021/05/07 00:53:09;;;;;;;7.50;5.00;;;7.20;97.30;;;;;;4939424;29;20473;-86
2021/05/07 00:55:36;;;;;;;7.27;4.83;;;7.20;97.30;;;;;;4939291;29;20732;-87
2021/05/07 00:58:02;;;;;;;12.90;5.87;;;7.10;97.30;;;;;;4939202;29;20234;-87
2021/05/07 01:00:31;;;;;;;9.20;5.07;;;7.10;97.30;;;;;;4956388;29;20418;-87
2021/05/07 01:02:57;;;;;;;8.33;5.40;;;7.10;97.30;;;;;;4939311;29;20189;-87
2021/05/07 01:05:23;;;;;;;7.90;5.37;;;7.10;97.30;;;;;;4938906;29;20820;-86
2021/05/07 01:07:50;;;;;;;10.37;5.83;;;7.10;97.30;;;;;;4938846;29;20505;-86
2021/05/07 01:10:16;;;;;;;11.87;6.80;;;7.00;97.30;;;;;;4938694;29;20179;-86
2021/05/07 01:12:42;;;;;;;7.50;5.50;;;7.00;97.30;;;;;;4938064;29;20434;-86
2021/05/07 01:15:13;;;;;;;14.10;5.90;;;6.90;97.30;;;;;;4937852;29;20514;-86
2021/05/07 01:17:42;;;;;;;10.50;5.97;;;6.90;97.30;;;;;;4954904;28;20473;-86
2021/05/07 01:20:17;;;;;;;10.83;5.73;;;6.90;97.30;;;;;;4937844;29;20427;-86
2021/05/07 01:22:45;;;;;;;7.60;5.30;;;6.90;97.30;;;;;;4938389;29;20437;-86
2021/05/07 01:25:12;;;;;;;9.20;5.30;;;6.90;97.30;;;;;;4938093;29;20458;-86
2021/05/07 01:27:43;;;;;;;7.60;5.00;;;6.90;97.30;;;;;;4955366;29;20447;-86
2021/05/07 01:30:20;;;;;;;7.97;5.00;;;6.90;97.30;;;;;;4938091;29;20426;-87
2021/05/07 01:32:47;;;;;;;9.23;5.70;;;6.90;97.30;;;;;;4938106;29;20426;-86
2021/05/07 01:35:16;;;;;;;11.13;6.53;;;6.90;97.30;;;;;;4937856;29;20439;-87
2021/05/07 01:37:44;;;;;;;9.70;5.30;;;6.90;97.30;;;;;;4937808;29;20513;-86
2021/05/07 01:40:19;;;;;;;9.93;5.70;;;6.90;97.30;;;;;;4955314;29;20906;-87
2021/05/07 01:42:46;;;;;;;6.00;4.77;;;6.90;97.30;;;;;;4937956;29;20886;-87
2021/05/07 01:45:14;;;;;;;8.30;4.93;;;6.90;97.30;;;;;;4939000;29;20427;-87
2021/05/07 01:47:40;;;;;;;8.33;5.53;;;6.90;97.30;;;;;;4938966;29;20450;-87
2021/05/07 01:50:07;;;;;;;11.13;5.40;;;6.90;97.30;;;;;;4939246;29;20960;-86
2021/05/07 01:52:33;;;;;;;8.00;5.50;;;6.90;97.30;;;;;;4939733;29;20426;-87
2021/05/07 01:54:59;;;;;;;9.50;5.93;;;6.90;97.30;;;;;;4939620;29;20434;-87
2021/05/07 01:57:30;;;;;;;9.50;5.30;;;6.90;97.30;;;;;;4939215;29;20235;-87
2021/05/07 01:59:55;;;;;;;12.23;5.77;;;6.90;97.30;;;;;;4939353;29;20175;-87
2021/05/07 02:02:21;;;;;;;10.90;5.70;;;6.90;97.30;;;;;;4939675;29;20482;-87
2021/05/07 02:04:46;;;;;;;7.20;5.50;;;6.90;97.30;;;;;;4939235;29;20592;-86
2021/05/07 02:07:12;;;;;;;12.10;5.77;;;6.90;97.30;;;;;;4939832;29;20210;-87
2021/05/07 02:09:37;;;;;;;10.33;6.27;;;6.90;97.30;;;;;;4956048;29;20183;-86
2021/05/07 02:12:03;;;;;;;10.90;5.77;;;6.90;97.30;;;;;;4938375;29;20198;-87
2021/05/07 02:14:28;;;;;;;9.47;5.87;;;6.90;97.30;;;;;;4955870;29;20275;-87
2021/05/07 02:16:54;;;;;;;9.70;6.77;;;6.90;97.30;;;;;;4954117;29;20291;-87
2021/05/07 02:19:19;;;;;;;12.60;7.23;;;6.90;97.30;;;;;;4953868;29;20172;-87
2021/05/07 02:21:45;;;;;;;10.17;6.77;;;6.80;97.30;;;;;;4954381;29;20539;-87
2021/05/07 02:24:11;;;;;;;9.73;6.50;;;6.90;97.30;;;;;;4952390;29;20179;-87
2021/05/07 02:26:37;;;;;;;13.80;7.40;;;6.80;97.30;;;;;;4953188;29;20206;-87
2021/05/07 02:29:03;;;;;;;15.57;9.17;;;6.80;97.30;;;;;;4953705;28;20423;-87
2021/05/07 02:31:29;;;;;;;12.97;8.47;;;6.80;97.30;;;;;;4956904;29;20430;-87
2021/05/07 02:33:55;;;;;;;14.03;7.97;;;6.80;97.30;;;;;;4956400;29;20414;-87
2021/05/07 02:36:21;;;;;;;12.97;8.20;;;6.80;97.30;;;;;;4956294;29;20203;-87
2021/05/07 02:38:46;;;;;;;13.33;7.80;;;6.80;97.30;;;;;;4956619;29;20471;-87
2021/05/07 02:41:11;;;;;;;16.10;9.20;;;6.80;97.30;;;;;;4955956;29;20175;-87
2021/05/07 02:43:37;;;;;;;16.40;8.40;;;6.80;97.30;;;;;;4956471;29;20587;-87
2021/05/07 02:46:02;;;;;;;18.10;9.00;;;6.80;97.30;;;;;;4956587;29;20179;-87
2021/05/07 02:48:28;;;;;;;18.80;10.37;;;6.80;97.30;;;;;;4956508;29;20203;-87
2021/05/07 02:50:54;;;;;;;17.10;10.13;;;6.80;97.30;;;;;;4957045;29;20265;-87
2021/05/07 02:53:19;;;;;;;15.43;9.37;;;6.70;97.30;;;;;;4959308;29;20187;-87
2021/05/07 02:55:44;;;;;;;19.00;9.80;;;6.70;97.30;;;;;;4958455;29;20176;-87
2021/05/07 02:58:10;;;;;;;19.13;10.37;;;6.70;97.30;;;;;;4967522;28;20222;-87
2021/05/07 03:00:36;;;;;;;21.27;11.13;;;6.70;97.30;;;;;;4977415;28;20653;-87
2021/05/07 03:03:01;;;;;;;17.90;9.87;;;6.70;97.30;;;;;;4977197;28;20660;-88
2021/05/07 03:05:27;;;;;;;15.13;10.10;;;6.70;97.30;;;;;;4960468;28;20197;-88
2021/05/07 03:07:52;;;;;;;18.73;9.70;;;6.70;97.30;;;;;;4959611;28;20218;-86
2021/05/07 03:10:22;;;;;;;20.60;9.93;;;6.70;97.30;;;;;;4959986;28;20194;-88
2021/05/07 03:12:50;;;;;;;19.57;10.37;;;6.70;97.30;;;;;;4960124;28;20185;-88
2021/05/07 03:15:16;;;;;;;19.20;10.80;;;6.70;97.30;;;;;;4977999;28;20500;-88
2021/05/07 03:17:42;;;;;;;16.17;9.93;;;6.70;97.30;;;;;;4960523;28;20473;-88
2021/05/07 03:20:08;;;;;;;16.20;9.70;;;6.70;97.30;;;;;;4961532;28;20445;-88
2021/05/07 03:22:34;;;;;;;20.03;9.60;;;6.70;97.30;;;;;;4961446;28;20179;-88
2021/05/07 03:25:02;;;;;;;17.37;9.17;;;6.70;97.30;;;;;;4978807;28;20480;-88
2021/05/07 03:27:27;;;;;;;17.93;10.50;;;6.60;97.30;;;;;;4961128;28;20213;-88
2021/05/07 03:29:53;;;;;;;19.50;10.60;;;6.60;97.30;;;;;;4961358;28;20421;-88
2021/05/07 03:32:18;;;;;;;21.20;11.23;;;6.60;97.30;;;;;;4978382;28;20222;-88
2021/05/07 03:34:44;;;;;;;21.23;11.17;;;6.60;97.30;;;;;;4961255;28;20188;-88
2021/05/07 03:37:10;;;;;;;25.70;12.47;;;6.60;97.30;;;;;;4960823;28;20218;-89
2021/05/07 03:39:35;;;;;;;22.40;13.00;;;6.60;97.30;;;;;;4960993;28;20426;-88
2021/05/07 03:42:01;;;;;;;19.57;11.00;;;6.50;97.30;;;;;;4958382;28;20186;-88
2021/05/07 03:44:27;;;;;;;26.30;12.43;;;6.50;97.30;;;;;;4960027;28;20186;-88
2021/05/07 03:46:52;;;;;;;24.70;12.83;;;6.50;97.30;;;;;;4959846;28;20828;-88
2021/05/07 03:49:18;;;;;;;25.27;13.47;;;6.50;97.30;;;;;;4959826;28;20265;-88
2021/05/07 03:51:43;;;;;;;25.07;13.13;;;6.50;97.30;;;;;;4960005;28;20665;-88
2021/05/07 03:54:09;;;;;;;25.87;13.77;;;6.50;97.30;;;;;;4959707;28;20263;-88
2021/05/07 03:56:34;;;;;;;24.00;12.67;;;6.50;97.30;;;;;;4959667;28;20195;-88
2021/05/07 03:59:00;;;;;;;27.33;12.77;;;6.50;97.30;;;;;;4959381;28;20771;-88
2021/05/07 04:01:25;;;;;;;22.90;12.33;;;6.50;97.30;;;;;;4959624;28;20166;-88
2021/05/07 04:03:51;;;;;;;27.47;14.27;;;6.50;97.30;;;;;;4959427;28;20575;-88
2021/05/07 04:06:19;;;;;;;30.83;14.90;;;6.50;97.30;;;;;;4959551;28;20261;-88
2021/05/07 04:08:53;;;;;;;27.40;14.50;;;6.50;97.30;;;;;;4975902;28;20170;-88
2021/05/07 04:13:49;;;;;;;29.77;14.03;;;6.50;97.30;;;;;;4975877;28;20413;-88
2021/05/07 04:16:15;;;;;;;26.70;11.73;;;6.50;97.30;;;;;;4958163;28;20462;-88
2021/05/07 04:18:41;;;;;;;25.90;12.83;;;6.50;97.30;;;;;;4958244;28;20270;-88
2021/05/07 04:21:06;;;;;;;33.43;14.63;;;6.40;97.30;;;;;;4958638;28;20211;-88
2021/05/07 04:23:32;;;;;;;27.10;12.20;;;6.40;97.30;;;;;;4958543;28;20426;-88
2021/05/07 04:25:58;;;;;;;25.00;12.47;;;6.40;97.30;;;;;;4958659;28;20182;-88
2021/05/07 04:28:23;;;;;;;23.30;12.73;;;6.40;97.30;;;;;;4958487;28;20241;-88
2021/05/07 04:30:49;;;;;;;28.20;14.80;;;6.40;97.30;;;;;;4958299;28;20205;-88
2021/05/07 04:33:15;;;;;;;27.27;13.00;;;6.40;97.30;;;;;;4958267;28;20182;-88
2021/05/07 04:35:41;;;;;;;27.40;13.60;;;6.40;97.30;;;;;;4975617;28;20410;-88
2021/05/07 04:38:06;;;;;;;28.07;13.83;;;6.40;97.30;;;;;;4958682;28;20908;-88
2021/05/07 04:40:32;;;;;;;26.37;12.53;;;6.40;97.30;;;;;;4958241;28;20177;-88
2021/05/07 04:43:01;;;;;;;28.20;14.70;;;6.40;97.30;;;;;;4958676;28;20185;-88
2021/05/07 04:45:28;;;;;;;26.57;13.07;;;6.40;97.30;;;;;;4958958;28;20428;-89
2021/05/07 04:47:54;;;;;;;28.63;14.23;;;6.50;97.30;;;;;;4947574;29;20458;-88
2021/05/07 04:50:20;;;;;;;26.27;12.93;;;6.50;97.30;;;;;;4940080;29;20431;-88
2021/05/07 04:52:45;;;;;;;25.20;12.60;;;6.50;97.30;;;;;;4940362;29;20426;-88
2021/05/07 04:55:11;;;;;;;24.60;13.00;;;6.40;97.30;;;;;;4940763;29;20187;-88
2021/05/07 04:57:36;;;;;;;27.83;12.03;;;6.40;97.30;;;;;;4939981;29;20250;-88
2021/05/07 05:00:04;;;;;;;22.43;12.60;;;6.40;97.30;;;;;;4940377;29;20190;-88
2021/05/07 05:02:29;;;;;;;20.60;11.33;;;6.30;97.30;;;;;;4938791;29;20266;-88
2021/05/07 05:04:56;;;;;;;21.97;11.67;;;6.40;97.30;;;;;;4940205;29;20514;-88
2021/05/07 05:07:21;;;;;;;20.33;11.20;;;6.30;97.30;;;;;;4957360;29;20209;-87
2021/05/07 05:09:47;;;;;;;19.83;10.90;;;6.30;97.30;;;;;;4939830;29;20724;-88
2021/05/07 05:12:12;;;;;;;22.90;10.80;;;6.30;97.30;;;;;;4939965;29;20179;-87
2021/05/07 05:14:37;;;;;;;28.40;14.77;;;6.30;97.30;;;;;;4939283;29;20611;-88
2021/05/07 05:17:03;;;;;;;25.37;12.20;;;6.30;97.30;;;;;;4944768;23;20242;-80
2021/05/07 05:19:29;;;;;;;26.17;13.10;;;6.20;97.30;;;;;;4936431;29;20183;-79
2021/05/07 05:21:54;;;;;;;27.50;13.83;;;6.20;97.30;;;;;;4937031;29;20286;-81
2021/05/07 05:24:20;;;;;;;27.63;12.80;;;6.20;97.30;;;;;;4936248;29;20191;-79
2021/05/07 05:26:45;;;;;;;26.10;12.60;;;6.20;97.30;;;;;;4936531;29;20214;-81
2021/05/07 05:29:13;;;;;;;28.90;13.13;;;6.20;97.30;;;;;;4936798;29;20337;-80
2021/05/07 05:31:39;;;;;;;20.93;11.20;;;6.20;97.30;;;;;;4936233;29;20202;-79
2021/05/07 05:34:04;;;;;;;24.20;11.10;;;6.20;97.30;;;;;;4937080;29;20455;-81
2021/05/07 05:36:30;;;;;;;17.90;9.57;;;6.10;97.30;;;;;;4936528;29;20579;-79
2021/05/07 05:38:56;;;;;;;16.87;8.53;;;6.10;97.30;;;;;;4936128;29;20179;-80
2021/05/07 05:41:22;;;;;;;15.20;7.97;;;6.10;97.30;;;;;;4936742;29;20205;-80
2021/05/07 05:43:48;;;;;;;12.13;7.00;;;6.10;97.30;;;;;;4936610;29;20175;-79
2021/05/07 05:46:14;;;;;;;9.10;6.23;;;6.00;97.30;;;;;;4935907;29;20580;-79
2021/05/07 05:48:40;;;;;;;10.90;6.00;;;6.00;97.30;;;;;;4936955;29;20423;-80
2021/05/07 05:51:06;;;;;;;10.10;5.17;;;6.10;97.30;;;;;;4936231;29;20450;-79
2021/05/07 05:53:31;;;;;;;7.63;4.90;;;6.10;97.30;;;;;;4935881;29;20666;-79
2021/05/07 05:55:57;;;;;;;6.13;4.20;;;6.20;97.30;;;;;;4936770;29;20175;-79
2021/05/07 05:58:22;;;;;;;6.23;3.70;;;6.30;97.30;;;;;;4949399;23;20246;-71
2021/05/07 06:00:48;;;;;;;6.73;3.97;;;6.30;97.30;;;;;;4952783;29;20187;-71
2021/05/07 06:03:13;;;;;;;4.97;3.20;;;6.40;97.30;;;;;;4935667;29;20173;-72
2021/05/07 06:05:39;;;;;;;4.37;3.30;;;6.60;97.30;;;;;;4953297;29;20167;-72
2021/05/07 06:08:05;;;;;;;3.57;2.83;;;6.70;97.30;;;;;;4935496;29;20647;-72
2021/05/07 06:10:31;;;;;;;4.50;3.67;;;6.90;97.30;;;;;;4953535;29;20466;-72
2021/05/07 06:12:56;;;;;;;5.53;3.87;;;6.90;97.30;;;;;;4953395;29;20283;-72
2021/05/07 06:15:22;;;;;;;4.77;3.73;;;6.90;97.30;;;;;;4936166;29;20443;-72
2021/05/07 06:17:48;;;;;;;4.80;3.40;;;6.90;97.30;;;;;;4936608;29;20215;-72
2021/05/07 06:20:16;;;;;;;6.00;4.20;;;6.80;97.30;;;;;;4952696;29;20249;-72
2021/05/07 06:22:43;;;;;;;5.10;3.37;;;6.80;97.30;;;;;;4935956;29;20419;-71
2021/05/07 06:25:11;;;;;;;5.73;4.10;;;6.80;97.30;;;;;;4936281;29;20823;-71
2021/05/07 06:27:37;;;;;;;5.67;4.10;;;6.80;97.30;;;;;;4935715;29;20510;-71
2021/05/07 06:30:08;;;;;;;4.73;3.33;;;7.10;97.30;;;;;;4935556;29;21061;-72
2021/05/07 06:32:33;;;;;;;3.93;3.00;;;7.20;97.30;;;;;;4935622;29;20203;-72
2021/05/07 06:34:59;;;;;;;7.00;3.53;;;7.30;97.30;;;;;;4936108;29;20423;-71
2021/05/07 06:37:24;;;;;;;4.20;3.20;;;7.20;97.30;;;;;;4936519;29;20222;-72
2021/05/07 06:39:51;;;;;;;5.17;4.07;;;7.20;97.30;;;;;;4936239;29;20226;-72
2021/05/07 06:42:18;;;;;;;7.00;4.13;;;7.20;97.30;;;;;;4936431;29;20214;-72
2021/05/07 06:44:44;;;;;;;6.20;4.40;;;7.20;97.30;;;;;;4937444;29;20433;-72
2021/05/07 06:47:09;;;;;;;6.93;4.03;;;7.10;97.30;;;;;;4936448;29;20827;-71
2021/05/07 06:49:35;;;;;;;6.27;4.03;;;7.10;97.30;;;;;;4936858;29;20191;-70
2021/05/07 06:52:00;;;;;;;7.80;4.43;;;7.00;97.30;;;;;;4936950;29;20232;-71
2021/05/07 06:54:27;;;;;;;4.50;3.90;;;6.90;97.30;;;;;;4954161;29;20183;-72
2021/05/07 06:56:57;;;;;;;8.33;4.27;;;6.90;97.30;;;;;;4936464;29;20208;-72
2021/05/07 06:59:23;;;;;;;3.50;3.10;;;6.90;97.30;;;;;;4953274;29;20465;-70
2021/05/07 07:01:49;;;;;;;3.57;2.97;;;6.80;97.30;;;;;;4935043;29;20580;-72
2021/05/07 07:04:14;;;;;;;3.97;3.33;;;6.50;97.30;;;;;;4935319;29;20419;-72
2021/05/07 07:06:40;;;;;;;4.43;3.03;;;6.30;97.30;;;;;;4935620;29;20175;-72
2021/05/07 07:09:06;;;;;;;2.70;2.53;;;6.20;97.30;;;;;;4935122;29;20270;-73
2021/05/07 07:11:31;;;;;;;3.00;2.70;;;6.20;97.30;;;;;;4952516;29;20206;-72
2021/05/07 07:13:57;;;;;;;3.63;2.70;;;6.20;97.30;;;;;;4935153;29;20654;-72
2021/05/07 07:16:22;;;;;;;2.70;2.40;;;6.30;97.30;;;;;;4954213;28;20195;-72
2021/05/07 07:18:48;;;;;;;4.37;2.53;;;6.30;97.30;;;;;;4938730;29;20179;-72
2021/05/07 07:21:13;;;;;;;4.33;2.60;;;6.50;97.30;;;;;;4938403;29;20203;-72
2021/05/07 07:23:39;;;;;;;3.57;2.10;;;6.50;97.30;;;;;;4955255;29;20176;-72
2021/05/07 07:26:05;;;;;;;4.33;2.93;;;6.60;97.30;;;;;;4938718;29;20175;-72
2021/05/07 07:28:32;;;;;;;2.87;2.50;;;6.90;97.30;;;;;;4955282;29;20186;-73
2021/05/07 07:30:58;;;;;;;4.37;2.73;;;6.90;97.30;;;;;;4938168;29;20442;-72
2021/05/07 07:33:24;;;;;;;3.40;2.70;;;6.80;97.30;;;;;;4938645;29;20941;-72
2021/05/07 07:35:50;;;;;;;4.10;3.03;;;6.60;97.30;;;;;;4954939;29;20407;-72
2021/05/07 07:38:15;;;;;;;3.70;2.90;;;6.70;97.30;;;;;;4938701;29;20298;-73
2021/05/07 07:40:41;;;;;;;3.90;2.90;;;6.80;97.30;;;;;;4938263;29;20666;-72
2021/05/07 07:43:07;;;;;;;2.70;2.50;;;7.00;97.30;;;;;;4937879;29;20175;-72
2021/05/07 07:45:32;;;;;;;2.93;2.70;;;7.00;97.30;;;;;;4938565;29;20274;-72
2021/05/07 07:47:59;;;;;;;2.40;2.20;;;6.90;97.30;;;;;;4938374;29;20623;-71
2021/05/07 07:50:25;;;;;;;2.37;2.17;;;6.90;97.30;;;;;;4954523;29;20452;-73
2021/05/07 07:52:51;;;;;;;3.30;2.97;;;6.90;97.30;;;;;;4938341;29;20465;-73
2021/05/07 07:55:16;;;;;;;3.10;2.40;;;6.90;97.30;;;;;;4937891;29;20427;-73
2021/05/07 07:57:42;;;;;;;3.10;2.60;;;6.80;97.30;;;;;;4937262;29;20491;-73
2021/05/07 08:00:09;;;;;;;2.97;2.07;;;6.70;97.30;;;;;;4955287;29;20171;-73
2021/05/07 08:02:34;;;;;;;2.67;2.10;;;6.70;97.30;;;;;;4954505;29;20205;-74
2021/05/07 08:05:00;;;;;;;2.77;2.40;;;6.70;97.30;;;;;;4937562;29;20411;-72
2021/05/07 08:07:25;;;;;;;2.60;2.20;;;6.60;97.30;;;;;;4955590;29;20659;-72
2021/05/07 08:09:51;;;;;;;2.53;2.33;;;6.50;97.30;;;;;;4954682;29;20738;-72
2021/05/07 08:12:17;;;;;;;4.60;3.03;;;6.40;97.30;;;;;;4954325;28;20686;-72
2021/05/07 08:14:42;;;;;;;2.83;2.37;;;6.30;97.30;;;;;;4954905;29;20262;-72
2021/05/07 08:17:11;;;;;;;2.90;2.40;;;6.30;97.30;;;;;;4936861;29;20226;-77
2021/05/07 08:19:36;;;;;;;2.97;2.40;;;6.30;97.30;;;;;;4937078;29;20186;-72
2021/05/07 08:22:03;;;;;;;3.17;2.37;;;6.30;97.30;;;;;;4937544;29;20426;-73
2021/05/07 08:24:29;;;;;;;3.47;2.73;;;6.30;97.30;;;;;;4937023;29;20185;-73
2021/05/07 08:26:57;;;;;;;2.27;2.10;;;6.40;97.30;;;;;;4936740;29;20422;-72
2021/05/07 08:29:23;;;;;;;3.23;2.53;;;6.40;97.30;;;;;;4937254;29;20506;-71
2021/05/07 08:31:48;;;;;;;3.13;2.53;;;6.50;97.30;;;;;;4937116;29;20875;-73
2021/05/07 08:34:15;;;;;;;3.50;2.90;;;6.50;97.30;;;;;;4937205;29;20176;-72
2021/05/07 08:36:41;;;;;;;3.20;2.50;;;6.50;97.30;;;;;;4954465;29;20674;-75
2021/05/07 08:39:06;;;;;;;3.87;2.60;;;6.50;97.30;;;;;;4937023;29;20586;-72
2021/05/07 08:41:32;;;;;;;3.63;2.97;;;6.30;97.30;;;;;;4954385;29;20195;-72
2021/05/07 08:43:58;;;;;;;3.60;2.87;;;6.20;97.30;;;;;;4936757;29;20230;-72
2021/05/07 08:46:24;;;;;;;4.77;2.87;;;6.10;97.30;;;;;;4936237;29;20183;-72
2021/05/07 08:48:51;;;;;;;3.90;3.07;;;6.20;97.30;;;;;;4937248;29;20503;-71
2021/05/07 08:51:17;;;;;;;4.20;3.17;;;6.20;97.30;;;;;;4936231;29;20250;-71
2021/05/07 08:53:43;;;;;;;3.60;2.63;;;6.20;97.30;;;;;;4936671;29;20514;-72
2021/05/07 08:56:09;;;;;;;3.13;2.70;;;6.20;97.30;;;;;;4954286;29;20498;-72
2021/05/07 08:58:35;;;;;;;3.43;2.80;;;6.30;97.30;;;;;;4936093;29;20652;-72
2021/05/07 09:01:03;;;;;;;4.40;3.53;;;6.30;97.30;;;;;;4936582;29;20533;-72
2021/05/07 09:03:47;;;;;;;3.80;3.17;;;6.30;97.30;;;;;;4954042;29;20973;-72
2021/05/07 09:06:20;;;;;;;4.10;3.30;;;6.40;97.30;;;;;;4936307;29;20423;-72
2021/05/07 09:08:48;;;;;;;3.60;3.20;;;6.80;97.30;;;;;;4953782;29;20903;-72
2021/05/07 09:11:14;;;;;;;4.43;3.00;;;7.10;97.30;;;;;;4936353;29;20953;-73
2021/05/07 09:13:39;;;;;;;3.63;3.03;;;7.20;97.30;;;;;;4936092;29;20422;-72
2021/05/07 09:16:08;;;;;;;3.23;2.70;;;7.40;97.30;;;;;;4953862;29;20500;-72
2021/05/07 09:18:47;;;;;;;3.30;2.67;;;7.50;97.30;;;;;;4936102;29;20179;-72
2021/05/07 09:21:14;;;;;;;3.30;2.80;;;7.30;97.30;;;;;;4953363;29;20811;-72
2021/05/07 09:23:44;;;;;;;3.97;3.07;;;7.20;97.30;;;;;;4953814;29;20792;-73
2021/05/07 09:26:10;;;;;;;3.83;3.47;;;7.00;97.30;;;;;;4953046;29;20419;-72
2021/05/07 09:28:37;;;;;;;5.33;4.03;;;6.90;97.30;;;;;;4935985;29;20466;-72
2021/05/07 09:31:14;;;;;;;5.87;4.43;;;6.90;97.30;;;;;;4953454;29;20776;-72
2021/05/07 09:33:45;;;;;;;8.13;4.70;;;6.90;97.30;;;;;;4953162;29;20442;-73
2021/05/07 09:36:25;;;;;;;5.70;4.60;;;6.90;97.30;;;;;;4936653;29;20525;-73
2021/05/07 09:38:51;;;;;;;7.13;4.80;;;7.00;97.30;;;;;;4935821;29;20502;-74
2021/05/07 09:41:17;;;;;;;9.80;5.73;;;7.10;97.30;;;;;;4953618;29;20858;-74
2021/05/07 09:43:43;;;;;;;7.63;6.00;;;7.10;97.30;;;;;;4936176;29;20446;-74
2021/05/07 09:46:08;;;;;;;8.67;5.60;;;7.10;97.30;;;;;;4935630;29;20943;-73
2021/05/07 09:48:34;;;;;;;9.77;5.90;;;7.10;97.30;;;;;;4935894;29;20183;-74
2021/05/07 09:51:03;;;;;;;8.70;6.00;;;7.10;97.30;;;;;;4953527;29;20202;-73
2021/05/07 09:53:39;;;;;;;10.07;5.87;;;7.10;97.30;;;;;;4935503;29;20270;-74
2021/05/07 09:56:16;;;;;;;12.73;6.10;;;7.20;97.30;;;;;;4936275;29;20918;-73
2021/05/07 09:58:42;;;;;;;7.93;5.57;;;7.20;97.30;;;;;;4935920;29;20454;-73
2021/05/07 10:01:10;;;;;;;8.50;5.90;;;7.30;97.30;;;;;;4952446;29;20485;-73
2021/05/07 10:03:35;;;;;;;7.47;5.57;;;7.40;97.30;;;;;;4953642;29;20410;-73
2021/05/07 10:06:02;;;;;;;8.83;5.50;;;7.60;97.30;;;;;;4935885;29;20419;-72
2021/05/07 10:08:29;;;;;;;9.57;6.30;;;7.80;97.30;;;;;;4952843;29;20208;-73
2021/05/07 10:10:59;;;;;;;6.60;5.33;;;8.20;97.30;;;;;;4936512;29;20957;-73
2021/05/07 10:13:27;;;;;;;11.17;6.93;;;8.80;97.30;;;;;;4935485;29;20977;-73
2021/05/07 10:16:03;;;;;;;6.73;5.30;;;9.20;97.30;;;;;;4953269;29;20422;-73
2021/05/07 10:18:31;;;;;;;6.70;5.40;;;9.50;96.90;;;;;;4953392;29;20953;-73
2021/05/07 10:21:03;;;;;;;7.00;5.03;;;9.50;94.60;;;;;;4935206;29;20446;-71
2021/05/07 10:23:29;;;;;;;9.63;5.60;;;9.30;95.00;;;;;;4935720;29;20553;-71
2021/05/07 10:25:57;;;;;;;8.30;6.33;;;9.10;95.60;;;;;;4952788;29;20526;-71
2021/05/07 10:28:23;;;;;;;7.97;5.10;;;8.90;95.50;;;;;;4952433;29;20183;-73
2021/05/07 10:30:49;;;;;;;8.07;5.40;;;8.70;96.60;;;;;;4935585;29;20435;-74
2021/05/07 10:33:19;;;;;;;6.07;4.90;;;8.60;95.10;;;;;;4953087;29;20407;-74
2021/05/07 10:35:54;;;;;;;8.83;5.80;;;8.50;96.80;;;;;;4935570;29;20470;-75
2021/05/07 10:38:21;;;;;;;7.50;5.20;;;8.50;97.30;;;;;;4952805;29;20446;-74
2021/05/07 10:40:51;;;;;;;7.57;4.93;;;8.60;97.30;;;;;;4935335;29;21017;-74
2021/05/07 10:43:18;;;;;;;6.07;4.80;;;8.60;97.10;;;;;;4935317;29;20419;-73
2021/05/07 10:45:49;;;;;;;7.40;4.90;;;8.70;96.40;;;;;;4936652;29;20417;-74
2021/05/07 10:48:26;;;;;;;8.23;5.33;;;8.70;95.60;;;;;;4935350;29;20474;-73
2021/05/07 10:50:57;;;;;;;7.50;5.10;;;8.60;96.60;;;;;;4937707;29;20819;-73
2021/05/07 10:53:24;;;;;;;8.17;4.90;;;8.50;97.30;;;;;;4939975;29;20426;-73
2021/05/07 10:55:50;;;;;;;7.30;4.60;;;8.40;97.30;;;;;;4939059;29;20927;-73
2021/05/07 10:58:16;;;;;;;7.33;4.60;;;8.70;97.30;;;;;;4943788;28;20479;-73
2021/05/07 11:00:41;;;;;;;10.83;6.00;;;9.00;97.30;;;;;;4948467;28;20195;-73
2021/05/07 11:03:18;;;;;;;8.33;5.30;;;9.20;96.40;;;;;;4966493;28;20178;-73
2021/05/07 11:05:49;;;;;;;6.93;5.13;;;9.60;95.60;;;;;;4975125;28;20171;-74
2021/05/07 11:08:15;;;;;;;8.47;5.43;;;10.00;94.90;;;;;;4974924;28;20410;-72
2021/05/07 11:10:43;;;;;;;9.20;5.10;;;10.10;91.70;;;;;;4952817;29;20446;-73
2021/05/07 11:13:10;;;;;;;7.53;4.40;;;9.80;91.60;;;;;;4937857;29;20423;-73
2021/05/07 11:15:36;;;;;;;9.57;5.50;;;9.70;93.00;;;;;;4937444;29;20418;-73
2021/05/07 11:18:07;;;;;;;7.40;5.10;;;9.60;92.10;;;;;;4938737;29;20498;-73
2021/05/07 11:20:41;;;;;;;7.97;4.90;;;9.40;92.10;;;;;;4938500;29;20407;-73
2021/05/07 11:23:12;;;;;;;7.50;4.67;;;9.40;91.70;;;;;;4938896;29;20509;-73
2021/05/07 11:25:39;;;;;;;8.33;5.10;;;9.50;88.60;;;;;;4938592;29;20887;-73
2021/05/07 11:28:19;;;;;;;7.77;4.63;;;9.60;89.60;;;;;;4939010;29;20419;-75
2021/05/07 11:30:45;;;;;;;5.73;4.03;;;10.20;90.30;;;;;;4937876;29;20661;-74
2021/05/07 11:33:11;;;;;;;7.67;4.40;;;10.90;87.70;;;;;;4938677;29;20423;-74
2021/05/07 11:35:36;;;;;;;9.87;4.63;;;11.20;85.40;;;;;;4955735;29;20983;-75
2021/05/07 11:38:02;;;;;;;5.63;4.20;;;10.90;85.60;;;;;;4938490;29;20207;-74
2021/05/07 11:40:39;;;;;;;3.60;3.17;;;10.90;86.70;;;;;;4938527;29;20187;-72
2021/05/07 11:43:12;;;;;;;4.70;3.40;;;10.90;83.90;;;;;;4955463;29;20160;-75
2021/05/07 11:45:39;;;;;;;4.53;2.93;;;10.70;83.10;;;;;;4955109;29;20980;-74
2021/05/07 11:48:07;;;;;;;3.30;2.60;;;10.60;81.90;;;;;;4938455;29;20941;-73
2021/05/07 11:50:33;;;;;;;5.17;2.40;;;10.40;80.30;;;;;;4954970;29;20421;-74
2021/05/07 11:52:58;;;;;;;4.17;2.40;;;10.30;80.30;;;;;;4954924;29;20838;-74
2021/05/07 11:55:27;;;;;;;4.73;2.70;;;10.50;81.00;;;;;;4955467;29;20259;-74
2021/05/07 11:58:01;;;;;;;6.03;2.80;;;10.80;81.60;;;;;;4972517;23;21835;-76
2021/05/07 12:00:28;;;;;;;3.50;2.67;;;11.00;80.60;;;;;;4957463;28;20441;-77
2021/05/07 12:03:02;;;;;;;4.33;2.67;;;11.40;80.60;;;;;;4956059;28;20402;-78
2021/05/07 12:05:32;;;;;;;5.00;2.77;;;11.70;79.80;;;;;;4974369;28;20397;-77
2021/05/07 12:07:58;;;;;;;3.20;2.50;;;12.10;78.90;;;;;;4957854;28;20932;-77
2021/05/07 12:10:27;;;;;;;4.30;3.50;;;12.50;77.30;;;;;;4956775;28;20500;-82
2021/05/07 12:12:57;;;;;;;8.37;3.97;;;12.60;79.60;;;;;;4957574;28;20186;-77
2021/05/07 12:15:41;;;;;;;4.37;3.47;;;12.30;81.80;;;;;;4957000;28;20945;-79
2021/05/07 12:18:19;;;;;;;7.50;4.87;;;12.20;81.40;;;;;;4956719;28;20458;-78
2021/05/07 12:20:47;;;;;;;5.90;4.00;;;12.60;80.50;;;;;;4975532;28;20959;-79
2021/05/07 12:23:13;;;;;;;8.70;4.43;;;12.90;80.30;;;;;;4956848;28;20414;-79
2021/05/07 12:25:46;;;;;;;8.17;4.63;;;13.00;80.50;;;;;;4956436;28;20477;-77
2021/05/07 12:28:16;;;;;;;7.57;4.90;;;12.70;80.10;;;;;;4974557;28;20177;-78
2021/05/07 12:30:44;;;;;;;5.27;3.53;;;12.80;81.20;;;;;;4956259;28;20961;-77
2021/05/07 12:33:23;;;;;;;4.47;2.93;;;12.70;79.40;;;;;;4956791;28;20460;-77
2021/05/07 12:35:50;;;;;;;3.23;2.40;;;12.40;77.00;;;;;;4956796;28;20925;-77
2021/05/07 12:38:23;;;;;;;4.27;2.93;;;12.80;76.40;;;;;;4956230;28;20988;-78
2021/05/07 12:41:10;;;;;;;3.93;2.67;;;13.00;76.70;;;;;;4956835;28;20884;-79
2021/05/07 12:43:43;;;;;;;4.03;2.87;;;12.90;77.20;;;;;;4956274;28;20426;-79
2021/05/07 12:46:10;;;;;;;4.90;2.83;;;12.80;76.30;;;;;;4955903;28;20414;-78
2021/05/07 12:48:36;;;;;;;2.70;2.20;;;12.70;76.50;;;;;;4956668;28;20418;-78
2021/05/07 12:51:04;;;;;;;3.57;2.50;;;13.00;75.80;;;;;;4956084;28;20438;-77
2021/05/07 12:53:30;;;;;;;3.77;3.23;;;13.70;75.00;;;;;;4956106;28;20555;-80